Terminal Aerodrome Forecast
Issued by NWS

Home | Current Version | Previous Version | Text Only | Print | Product List | Glossary On
Versions: 1 2 3 4 5 6 7 8 9 10 11 12 13 14 15 16 17 18 19
944
FTAK31 PAJN 182107 CCA
TAFAGY
TAF COR
PAGY 182107Z 1818/1918 04005KT P6SM SKC
     FM182300 04010G18KT P6SM SKC
     FM190000 04005KT P6SM SKC
     FM190900 04015G20KT P6SM SKC
     FM191600 04018G25KT P6SM SKC
      AMD LTD TO CLD VIS AND WIND=

USA.gov is the U.S. government's official web portal to all federal, state and local government web resources and services.